Time;durP1;ratioP1;P1;durP2;ratioP2;P2;SDS_P1;SDS_P2;PMS_P1;PMS_P2;Temp;Humidity;BMP_temperature;BMP_pressure;BME280_temperature;BME280_humidity;BME280_pressure;Samples;Min_cycle;Max_cycle;Signal;HPM_P1;HPM_P2
2022/06/23 00:00:31;;;;;;;5.63;1.88;;;12.40;99.90;;;;;;4914868;29;20785;-72
2022/06/23 00:02:58;;;;;;;3.00;1.90;;;12.30;99.90;;;;;;4919263;29;20032;-72
2022/06/23 00:05:26;;;;;;;3.53;1.92;;;12.30;99.90;;;;;;4924514;29;20554;-72
2022/06/23 00:07:56;;;;;;;3.58;1.73;;;12.20;99.90;;;;;;4916903;29;20180;-73
2022/06/23 00:10:32;;;;;;;3.38;1.83;;;12.10;99.90;;;;;;4925875;29;20102;-73
2022/06/23 00:12:58;;;;;;;3.28;2.08;;;12.10;99.90;;;;;;4917703;29;20043;-73
2022/06/23 00:15:39;;;;;;;4.57;3.10;;;12.00;99.90;;;;;;4914988;29;20040;-72
2022/06/23 00:18:14;;;;;;;5.10;2.15;;;12.00;99.90;;;;;;4919441;29;20156;-72
2022/06/23 00:20:54;;;;;;;5.05;2.65;;;12.00;99.90;;;;;;4920064;29;20172;-72
2022/06/23 00:23:35;;;;;;;3.72;2.20;;;12.00;99.90;;;;;;4921052;29;20042;-72
2022/06/23 00:26:26;;;;;;;4.25;2.10;;;12.00;99.90;;;;;;4916695;29;20150;-72
2022/06/23 00:29:04;;;;;;;7.05;2.53;;;11.90;99.90;;;;;;4919165;29;20036;-73
2022/06/23 00:31:35;;;;;;;2.45;1.80;;;11.90;99.90;;;;;;4922724;29;20087;-73
2022/06/23 00:34:14;;;;;;;2.47;2.28;;;11.80;99.90;;;;;;4920684;29;20051;-72
2022/06/23 00:36:47;;;;;;;1.80;1.40;;;11.70;99.90;;;;;;4919403;29;20025;-72
2022/06/23 00:39:21;;;;;;;3.35;2.20;;;11.60;99.90;;;;;;4921394;29;20071;-72
2022/06/23 00:41:48;;;;;;;3.25;1.63;;;11.40;99.90;;;;;;4921201;29;20040;-72
2022/06/23 00:44:32;;;;;;;7.47;2.10;;;11.30;99.90;;;;;;4920498;29;20032;-73
2022/06/23 00:47:03;;;;;;;3.30;2.60;;;11.30;99.90;;;;;;4922761;29;20467;-72
2022/06/23 00:49:39;;;;;;;2.75;2.38;;;11.30;99.90;;;;;;4921260;29;20036;-73
2022/06/23 00:52:27;;;;;;;6.18;2.30;;;11.30;99.90;;;;;;4921640;29;20035;-72
2022/06/23 00:54:58;;;;;;;2.78;2.00;;;11.40;99.90;;;;;;4906298;29;20040;-72
2022/06/23 00:57:47;;;;;;;3.50;2.30;;;11.50;99.90;;;;;;4919702;29;20027;-72
2022/06/23 01:00:24;;;;;;;2.78;2.50;;;11.60;99.90;;;;;;4919979;29;20023;-72
2022/06/23 01:03:14;;;;;;;4.10;2.25;;;11.60;99.90;;;;;;4921202;29;20042;-72
2022/06/23 01:06:13;;;;;;;4.40;2.60;;;11.80;99.90;;;;;;4916803;29;20062;-72
2022/06/23 01:08:41;;;;;;;6.20;3.17;;;11.80;99.90;;;;;;4917061;29;20028;-72
2022/06/23 01:11:31;;;;;;;4.15;2.13;;;11.80;99.90;;;;;;4919238;29;20028;-73
2022/06/23 01:14:09;;;;;;;2.92;1.77;;;11.90;99.90;;;;;;4910097;29;20048;-72
2022/06/23 01:16:46;;;;;;;3.83;2.22;;;11.90;99.90;;;;;;4922263;29;20094;-72
2022/06/23 01:19:37;;;;;;;3.40;2.05;;;12.00;99.90;;;;;;4918112;29;20101;-73
2022/06/23 01:22:11;;;;;;;3.33;2.27;;;12.10;99.90;;;;;;4919675;29;20055;-72
2022/06/23 01:25:05;;;;;;;4.25;2.17;;;12.20;99.90;;;;;;4912601;29;20035;-73
2022/06/23 01:27:37;;;;;;;11.20;2.20;;;12.40;99.90;;;;;;4918502;29;20055;-72
2022/06/23 01:30:10;;;;;;;2.95;2.25;;;12.50;99.90;;;;;;4922582;29;20484;-72
2022/06/23 01:32:53;;;;;;;5.43;1.95;;;12.60;99.90;;;;;;4915467;29;20792;-72
2022/06/23 01:35:31;;;;;;;5.40;2.70;;;12.70;99.90;;;;;;4917665;29;20035;-72
2022/06/23 01:38:08;;;;;;;4.28;2.28;;;12.70;99.90;;;;;;4918828;29;20504;-72
2022/06/23 01:40:46;;;;;;;2.92;2.17;;;12.80;99.90;;;;;;4920283;29;20038;-72
2022/06/23 01:43:14;;;;;;;2.92;2.53;;;12.80;99.90;;;;;;4923132;29;20040;-72
2022/06/23 01:45:55;;;;;;;5.10;2.38;;;12.80;99.90;;;;;;4918041;29;20031;-72
2022/06/23 01:48:51;;;;;;;7.05;2.53;;;12.90;99.90;;;;;;4919181;29;20043;-72
2022/06/23 01:51:25;;;;;;;8.13;2.53;;;12.90;99.90;;;;;;4911362;29;20528;-72
2022/06/23 01:53:54;;;;;;;6.88;3.17;;;12.80;99.90;;;;;;4922755;29;20032;-72
2022/06/23 01:56:59;;;;;;;8.07;3.35;;;12.80;99.90;;;;;;4915911;29;20035;-72
2022/06/23 01:59:24;;;;;;;7.10;3.05;;;12.80;99.90;;;;;;4906898;29;20051;-72
2022/06/23 02:02:10;;;;;;;7.53;2.88;;;12.80;99.90;;;;;;4918672;29;20028;-72
2022/06/23 02:04:54;;;;;;;8.45;3.25;;;12.80;99.90;;;;;;4918923;29;20032;-72
2022/06/23 02:07:34;;;;;;;3.83;2.33;;;12.80;99.90;;;;;;4914688;29;20127;-72
2022/06/23 02:10:12;;;;;;;6.28;2.75;;;12.80;99.90;;;;;;4920559;29;20086;-72
2022/06/23 02:12:47;;;;;;;3.47;2.65;;;12.70;99.90;;;;;;4920334;29;20086;-72
2022/06/23 02:15:23;;;;;;;4.43;2.85;;;12.70;99.90;;;;;;4932283;29;20507;-72
2022/06/23 02:18:11;;;;;;;7.10;3.45;;;12.70;99.90;;;;;;4913189;29;20052;-72
2022/06/23 02:21:01;;;;;;;5.63;2.67;;;12.70;99.90;;;;;;4917774;29;20672;-73
2022/06/23 02:24:14;;;;;;;5.97;2.30;;;12.70;99.90;;;;;;4918959;29;20035;-73
2022/06/23 02:27:14;;;;;;;5.95;2.55;;;12.70;99.90;;;;;;4913927;29;20072;-72
2022/06/23 02:29:45;;;;;;;3.08;2.40;;;12.70;99.90;;;;;;4918982;29;20164;-73
2022/06/23 02:32:19;;;;;;;5.68;2.40;;;12.70;99.90;;;;;;4916862;29;20091;-73
2022/06/23 02:35:06;;;;;;;3.33;2.13;;;12.70;99.90;;;;;;4921372;29;20031;-72
2022/06/23 02:38:08;;;;;;;3.00;2.00;;;12.70;99.90;;;;;;4914335;29;20132;-72
2022/06/23 02:40:51;;;;;;;2.83;2.40;;;12.70;99.90;;;;;;4914099;29;20468;-73
2022/06/23 02:43:17;;;;;;;5.28;2.60;;;12.80;99.90;;;;;;4915443;29;20023;-73
2022/06/23 02:45:55;;;;;;;5.60;2.78;;;12.80;99.90;;;;;;4919196;29;20046;-73
2022/06/23 02:48:39;;;;;;;4.47;2.40;;;12.80;99.90;;;;;;4920760;29;20053;-73
2022/06/23 02:51:26;;;;;;;2.38;2.03;;;12.90;99.90;;;;;;4916144;29;20039;-73
2022/06/23 02:54:16;;;;;;;3.17;2.25;;;13.00;99.90;;;;;;4922500;29;20043;-72
2022/06/23 02:57:02;;;;;;;6.68;2.70;;;13.00;99.90;;;;;;4918423;29;20063;-72
2022/06/23 02:59:53;;;;;;;2.22;2.03;;;13.00;99.90;;;;;;4923038;29;20039;-72
2022/06/23 03:02:31;;;;;;;3.30;2.45;;;13.00;99.90;;;;;;4920699;29;20023;-73
2022/06/23 03:05:06;;;;;;;2.95;2.30;;;13.00;99.90;;;;;;4921407;29;20043;-72
2022/06/23 03:07:35;;;;;;;4.40;2.50;;;13.10;99.90;;;;;;4921393;29;20094;-72
2022/06/23 03:10:10;;;;;;;3.53;2.15;;;13.10;99.90;;;;;;4924633;29;20512;-74
2022/06/23 03:12:45;;;;;;;3.80;2.15;;;13.10;99.90;;;;;;4922638;29;20035;-74
2022/06/23 03:15:14;;;;;;;3.35;2.13;;;13.10;99.90;;;;;;4918646;29;20039;-74
2022/06/23 03:17:45;;;;;;;6.00;2.45;;;13.10;99.90;;;;;;4920748;29;20083;-74
2022/06/23 03:20:26;;;;;;;6.07;2.90;;;13.10;99.90;;;;;;4924849;29;20499;-74
2022/06/23 03:22:57;;;;;;;3.08;1.77;;;13.20;99.90;;;;;;4921139;29;20118;-74
2022/06/23 03:25:41;;;;;;;5.95;2.72;;;13.20;99.90;;;;;;4919594;29;20031;-74
2022/06/23 03:28:21;;;;;;;3.65;2.40;;;13.30;99.90;;;;;;4923277;29;21168;-74
2022/06/23 03:31:03;;;;;;;4.75;2.78;;;13.30;99.90;;;;;;4924153;29;20118;-74
2022/06/23 03:33:53;;;;;;;4.43;2.50;;;13.30;99.90;;;;;;4915053;29;20046;-74
2022/06/23 03:36:41;;;;;;;5.50;3.30;;;13.40;99.90;;;;;;4924403;29;20027;-74
2022/06/23 03:42:06;;;;;;;5.03;2.85;;;13.40;99.90;;;;;;4924153;29;20067;-74
2022/06/23 03:45:01;;;;;;;4.15;2.55;;;13.50;99.90;;;;;;4922152;29;20047;-74
2022/06/23 03:47:59;;;;;;;4.63;2.67;;;13.50;99.90;;;;;;4911345;29;20076;-74
2022/06/23 03:50:34;;;;;;;4.70;3.22;;;13.50;99.90;;;;;;4917638;29;20093;-74
2022/06/23 03:53:15;;;;;;;4.00;2.80;;;13.50;99.90;;;;;;4917839;29;20031;-74
2022/06/23 03:55:47;;;;;;;5.75;3.28;;;13.50;99.90;;;;;;4924273;29;20104;-74
2022/06/23 03:58:25;;;;;;;6.18;3.65;;;13.60;99.90;;;;;;4923003;29;20040;-74
2022/06/23 04:01:21;;;;;;;6.60;3.00;;;13.60;99.90;;;;;;4924994;29;20040;-74
2022/06/23 04:04:13;;;;;;;6.65;3.80;;;13.70;99.90;;;;;;4904755;29;20040;-74
2022/06/23 04:06:41;;;;;;;6.55;4.55;;;13.70;99.90;;;;;;4916841;29;20043;-74
2022/06/23 04:09:25;;;;;;;6.13;3.30;;;13.80;99.90;;;;;;4920097;29;20758;-74
2022/06/23 04:12:13;;;;;;;4.10;3.47;;;13.80;99.90;;;;;;4922647;29;20500;-74
2022/06/23 04:15:05;;;;;;;4.90;2.78;;;13.80;99.90;;;;;;4920936;29;20032;-75
2022/06/23 04:18:01;;;;;;;5.75;3.20;;;13.80;99.90;;;;;;4920975;29;20072;-74
2022/06/23 04:20:39;;;;;;;4.32;2.97;;;13.90;99.90;;;;;;4919212;29;20036;-74
2022/06/23 04:23:08;;;;;;;4.97;3.15;;;13.90;99.90;;;;;;4920255;29;20479;-74
2022/06/23 04:25:47;;;;;;;4.28;2.55;;;13.90;99.90;;;;;;4919687;29;20130;-72
2022/06/23 04:28:30;;;;;;;4.55;2.85;;;14.00;99.90;;;;;;4920833;29;20028;-74
2022/06/23 04:30:58;;;;;;;2.63;2.42;;;14.00;99.90;;;;;;4918659;29;20036;-74
2022/06/23 04:33:26;;;;;;;5.28;2.63;;;14.10;99.90;;;;;;4920979;29;20075;-74
2022/06/23 04:35:55;;;;;;;5.90;2.70;;;14.10;99.90;;;;;;4917291;29;20135;-74
2022/06/23 04:38:28;;;;;;;3.65;2.03;;;14.10;99.90;;;;;;4916053;29;20040;-74
2022/06/23 04:41:03;;;;;;;2.50;2.30;;;14.20;99.90;;;;;;4912139;29;20035;-74
2022/06/23 04:43:55;;;;;;;3.30;2.80;;;14.20;99.90;;;;;;4921523;29;20036;-74
2022/06/23 04:46:41;;;;;;;4.10;2.45;;;14.30;99.90;;;;;;4918053;29;20044;-72
2022/06/23 04:49:24;;;;;;;4.18;2.92;;;14.40;99.90;;;;;;4922138;29;20027;-72
2022/06/23 04:52:04;;;;;;;4.35;2.58;;;14.40;99.90;;;;;;4921556;29;20027;-74
2022/06/23 04:54:41;;;;;;;5.40;2.60;;;14.50;99.90;;;;;;4920923;29;20086;-72
2022/06/23 04:57:15;;;;;;;6.50;2.70;;;14.60;99.90;;;;;;4912685;29;20043;-74
2022/06/23 04:59:52;;;;;;;6.78;2.90;;;14.60;99.90;;;;;;4922395;29;20131;-74
2022/06/23 05:02:20;;;;;;;5.25;2.88;;;14.70;99.90;;;;;;4915943;29;20278;-72
2022/06/23 05:04:53;;;;;;;3.70;2.53;;;14.70;99.90;;;;;;4913063;29;20035;-72
2022/06/23 05:07:27;;;;;;;5.95;2.60;;;14.70;99.90;;;;;;4917934;29;20869;-74
2022/06/23 05:09:59;;;;;;;5.65;3.05;;;14.80;99.90;;;;;;4913037;29;20038;-74
2022/06/23 05:12:27;;;;;;;5.03;2.17;;;14.90;99.90;;;;;;4917602;29;20476;-74
2022/06/23 05:15:21;;;;;;;3.13;2.13;;;15.00;99.90;;;;;;4917733;29;20131;-73
2022/06/23 05:17:54;;;;;;;5.07;2.58;;;15.00;99.90;;;;;;4878341;29;1114771;-74
2022/06/23 05:20:40;;;;;;;3.30;2.05;;;15.00;99.90;;;;;;4912901;29;20032;-74
2022/06/23 05:23:35;;;;;;;2.33;2.13;;;15.00;99.90;;;;;;4918796;29;20111;-73
2022/06/23 05:26:12;;;;;;;3.33;2.58;;;15.00;99.90;;;;;;4911463;29;20047;-73
2022/06/23 05:28:41;;;;;;;7.28;2.78;;;15.00;99.90;;;;;;4918429;29;20032;-73
2022/06/23 05:31:13;;;;;;;3.92;2.30;;;15.10;99.90;;;;;;4917614;29;20023;-74
2022/06/23 05:33:46;;;;;;;5.25;3.17;;;15.10;99.90;;;;;;4919017;29;20117;-74
2022/06/23 05:36:24;;;;;;;5.15;3.50;;;15.20;99.90;;;;;;4909655;29;20035;-73
2022/06/23 05:39:05;;;;;;;4.57;3.03;;;15.20;99.90;;;;;;4916023;29;20044;-74
2022/06/23 05:41:36;;;;;;;4.63;3.42;;;15.10;99.90;;;;;;4922564;29;20039;-73
2022/06/23 05:44:09;;;;;;;;;;;15.10;99.90;;;;;;4915655;29;20502;-73
2022/06/23 05:46:40;;;;;;;4.32;3.30;;;15.10;99.90;;;;;;4922119;29;19921;-73
2022/06/23 05:49:23;;;;;;;6.70;3.17;;;15.00;99.90;;;;;;4917069;29;20480;-73
2022/06/23 05:52:12;;;;;;;3.90;3.00;;;15.00;99.90;;;;;;4907993;29;20938;-73
2022/06/23 05:55:10;;;;;;;4.63;2.78;;;15.00;99.90;;;;;;4906855;29;20118;-72
2022/06/23 05:57:46;;;;;;;5.15;2.80;;;15.00;99.90;;;;;;4908562;29;20551;-73
2022/06/23 06:00:26;;;;;;;3.35;3.03;;;15.00;99.90;;;;;;4910442;29;20130;-73
2022/06/23 06:03:29;;;;;;;6.22;3.10;;;15.10;99.90;;;;;;4913940;29;20207;-73
2022/06/23 06:05:57;;;;;;;4.10;2.42;;;15.10;99.90;;;;;;4912825;29;20051;-73
2022/06/23 06:08:32;;;;;;;4.60;2.80;;;15.20;99.90;;;;;;4910576;29;20059;-73
2022/06/23 06:11:01;;;;;;;4.10;2.85;;;15.30;99.90;;;;;;4920503;29;20042;-73
2022/06/23 06:13:32;;;;;;;8.52;7.75;;;15.40;99.90;;;;;;4914754;29;20020;-73
2022/06/23 06:15:59;;;;;;;12.03;11.03;;;15.40;99.90;;;;;;4916349;29;20063;-73
2022/06/23 06:18:31;;;;;;;4.22;3.35;;;15.40;99.90;;;;;;4915408;29;20382;-74
2022/06/23 06:20:58;;;;;;;;;;;15.60;99.90;;;;;;4905410;29;20697;-73
2022/06/23 06:23:44;;;;;;;4.90;3.47;;;15.60;99.90;;;;;;4907606;29;20300;-73
2022/06/23 06:26:14;;;;;;;6.80;2.78;;;15.70;99.90;;;;;;4896546;29;20040;-73
2022/06/23 06:28:40;;;;;;;4.95;4.20;;;15.60;99.90;;;;;;4895921;29;20035;-73
2022/06/23 06:31:28;;;;;;;9.20;4.20;;;15.60;99.90;;;;;;4905295;29;20039;-73
2022/06/23 06:34:02;;;;;;;4.38;3.35;;;15.70;99.90;;;;;;4900687;29;21453;-73
2022/06/23 06:36:46;;;;;;;5.55;3.78;;;15.70;99.90;;;;;;4907395;29;20076;-73
2022/06/23 06:39:32;;;;;;;4.30;3.22;;;15.80;99.90;;;;;;4910516;29;20128;-73
2022/06/23 06:42:09;;;;;;;7.10;3.78;;;15.90;99.90;;;;;;4914270;29;20031;-73
2022/06/23 06:44:41;;;;;;;5.45;3.80;;;16.00;99.90;;;;;;4916854;29;20486;-73
2022/06/23 06:47:14;;;;;;;5.05;3.47;;;16.20;99.90;;;;;;4908066;29;20116;-74
2022/06/23 06:49:40;;;;;;;5.53;3.10;;;16.40;99.90;;;;;;4906240;29;20063;-73
2022/06/23 06:52:05;;;;;;;4.10;3.20;;;16.60;99.90;;;;;;4905101;29;20146;-73
2022/06/23 06:54:48;;;;;;;3.65;2.47;;;16.80;99.90;;;;;;4911130;29;20491;-73
2022/06/23 06:57:23;;;;;;;4.85;3.22;;;17.00;99.90;;;;;;4900324;29;20091;-73
2022/06/23 06:59:58;;;;;;;3.00;2.70;;;17.40;99.90;;;;;;4902761;29;20522;-73
2022/06/23 07:02:30;;;;;;;5.85;2.80;;;17.80;99.90;;;;;;4913450;29;20380;-73
2022/06/23 07:05:14;;;;;;;4.63;2.60;;;18.10;99.90;;;;;;4912441;29;20111;-73
2022/06/23 07:07:43;;;;;;;3.05;2.55;;;18.60;99.90;;;;;;4909528;29;20488;-73
2022/06/23 07:10:23;;;;;;;4.30;2.58;;;18.80;99.90;;;;;;4910979;29;20479;-73
2022/06/23 07:12:53;;;;;;;5.88;3.20;;;19.10;99.90;;;;;;4909331;29;20028;-73
2022/06/23 07:15:25;;;;;;;9.48;7.40;;;19.40;99.90;;;;;;4905984;29;20067;-73
2022/06/23 07:17:57;;;;;;;5.25;3.95;;;19.60;99.90;;;;;;4907386;29;20059;-72
2022/06/23 07:20:25;;;;;;;;;;;19.80;99.90;;;;;;4906799;29;20035;-72
2022/06/23 07:23:01;;;;;;;3.80;2.65;;;20.00;99.90;;;;;;4909943;29;19950;-73
2022/06/23 07:25:34;;;;;;;8.95;4.38;;;20.20;99.90;;;;;;4909089;29;20083;-72
2022/06/23 07:28:18;;;;;;;4.85;2.88;;;20.30;99.90;;;;;;4908783;29;20164;-72
2022/06/23 07:30:55;;;;;;;11.02;6.60;;;20.20;99.90;;;;;;4905091;29;20040;-73
2022/06/23 07:33:41;;;;;;;4.20;2.72;;;20.10;99.90;;;;;;4906484;29;20110;-73
2022/06/23 07:36:15;;;;;;;4.43;3.67;;;19.80;99.90;;;;;;4907598;29;20086;-72
2022/06/23 07:39:04;;;;;;;5.60;3.67;;;19.70;99.90;;;;;;4905911;29;20052;-72
2022/06/23 07:41:59;;;;;;;6.22;4.07;;;19.80;99.90;;;;;;4911051;28;20070;-72
2022/06/23 07:44:39;;;;;;;9.60;4.22;;;19.90;99.90;;;;;;4899944;29;20103;-72
2022/06/23 07:47:05;;;;;;;9.38;4.10;;;19.80;99.90;;;;;;4903105;29;20125;-72
2022/06/23 07:49:33;;;;;;;8.68;4.35;;;19.90;99.90;;;;;;4899172;29;20698;-72
2022/06/23 07:52:00;;;;;;;8.80;3.70;;;19.90;99.90;;;;;;4906843;29;20031;-72
2022/06/23 07:54:27;;;;;;;5.38;3.95;;;20.00;99.90;;;;;;4902188;29;20059;-72
2022/06/23 07:56:53;;;;;;;7.32;3.95;;;22.00;99.90;;;;;;4900953;29;20041;-72
2022/06/23 07:59:24;;;;;;;6.35;3.25;;;22.30;99.90;;;;;;4898986;29;20091;-72
2022/06/23 08:01:56;;;;;;;6.22;3.95;;;22.40;99.90;;;;;;4902672;29;20039;-71
2022/06/23 08:04:43;;;;;;;7.53;4.65;;;22.00;99.90;;;;;;4899398;29;20059;-72
2022/06/23 08:07:11;;;;;;;8.50;4.25;;;21.80;99.90;;;;;;4898397;29;20444;-71
2022/06/23 08:10:01;;;;;;;13.77;4.00;;;21.50;99.90;;;;;;4900158;29;20043;-72
2022/06/23 08:12:57;;;;;;;8.43;4.70;;;21.40;99.90;;;;;;4902270;29;20530;-71
2022/06/23 08:18:34;;;;;;;;;;;21.20;99.90;;;;;;4871711;29;20132;-71
2022/06/23 08:21:03;;;;;;;5.40;3.95;;;21.30;99.90;;;;;;4860909;29;20372;-71
2022/06/23 08:23:37;;;;;;;5.90;3.80;;;22.20;99.90;;;;;;4875871;29;20059;-71
2022/06/23 08:26:06;;;;;;;6.63;4.03;;;22.40;99.90;;;;;;4870458;29;20972;-72
2022/06/23 08:28:33;;;;;;;10.60;3.90;;;22.40;99.90;;;;;;4876818;29;20532;-71
2022/06/23 08:30:59;;;;;;;9.20;4.35;;;22.10;99.90;;;;;;4869961;29;20678;-71
2022/06/23 08:33:26;;;;;;;6.32;4.40;;;21.90;99.90;;;;;;4879164;29;20084;-72
2022/06/23 08:35:55;;;;;;;10.25;4.63;;;21.90;99.90;;;;;;4877806;29;20668;-71
2022/06/23 08:38:32;;;;;;;3.85;3.13;;;22.10;99.90;;;;;;4869490;29;20032;-72
2022/06/23 08:41:03;;;;;;;10.68;5.07;;;22.10;99.90;;;;;;4869678;29;20690;-72
2022/06/23 08:43:52;;;;;;;18.33;5.32;;;22.20;99.90;;;;;;4869997;29;20090;-72
2022/06/23 08:46:21;;;;;;;11.15;4.20;;;22.10;99.90;;;;;;4874241;29;22478;-72
2022/06/23 08:48:59;;;;;;;15.13;5.80;;;22.30;99.90;;;;;;4870030;29;20747;-72
2022/06/23 08:52:06;;;;;;;5.70;4.20;;;22.50;99.90;;;;;;4877532;29;20029;-72
2022/06/23 08:54:54;;;;;;;6.03;3.95;;;22.60;99.90;;;;;;4880290;29;20508;-73
2022/06/23 08:57:32;;;;;;;10.80;4.78;;;22.50;99.90;;;;;;4874732;29;20041;-73
2022/06/23 09:00:13;;;;;;;7.57;4.95;;;22.50;99.90;;;;;;4872459;29;20037;-72
2022/06/23 09:02:56;;;;;;;7.85;4.75;;;22.60;99.90;;;;;;4873470;29;20036;-72
2022/06/23 09:05:28;;;;;;;5.60;4.05;;;22.80;99.90;;;;;;4874335;29;20733;-71
2022/06/23 09:07:59;;;;;;;7.28;3.33;;;23.00;99.90;;;;;;4871972;29;20044;-71
2022/06/23 09:10:24;;;;;;;;;;;23.60;99.90;;;;;;4873510;29;20083;-71
2022/06/23 09:12:56;;;;;;;7.57;3.60;;;24.00;99.90;;;;;;4874519;29;19919;-71
2022/06/23 09:15:28;;;;;;;7.28;3.47;;;24.30;99.90;;;;;;4882332;29;20041;-71
2022/06/23 09:18:18;;;;;;;6.80;3.50;;;24.30;99.90;;;;;;4924588;29;20040;-71
2022/06/23 09:21:00;;;;;;;5.90;3.35;;;24.20;99.90;;;;;;4923487;29;20035;-71
2022/06/23 09:23:30;;;;;;;5.22;3.05;;;24.10;99.90;;;;;;4923883;29;20024;-71
2022/06/23 09:26:23;;;;;;;7.78;3.45;;;24.60;99.90;;;;;;4921416;29;20642;-71
2022/06/23 09:28:57;;;;;;;4.47;3.22;;;25.00;99.90;;;;;;4921534;29;20150;-71
2022/06/23 09:31:23;;;;;;;11.15;3.90;;;25.00;99.90;;;;;;4923989;29;20502;-72
2022/06/23 09:33:55;;;;;;;7.18;3.58;;;25.60;99.90;;;;;;4920309;29;20046;-71
2022/06/23 09:36:50;;;;;;;6.53;3.67;;;27.10;99.90;;;;;;4921579;29;20039;-72
2022/06/23 09:39:44;;;;;;;6.38;2.95;;;28.30;93.30;;;;;;4920030;29;20130;-72
2022/06/23 09:42:32;;;;;;;7.63;3.10;;;29.80;91.40;;;;;;4915288;29;20031;-74
2022/06/23 09:45:28;;;;;;;3.92;3.10;;;31.50;78.00;;;;;;4916948;29;20490;-74
2022/06/23 09:48:09;;;;;;;5.57;3.30;;;32.20;54.20;;;;;;4910056;29;20028;-74
2022/06/23 09:50:52;;;;;;;5.40;3.63;;;32.50;58.90;;;;;;4909993;29;20038;-73
2022/06/23 09:53:20;;;;;;;5.45;3.58;;;31.30;54.80;;;;;;4919953;29;20035;-74
2022/06/23 09:56:24;;;;;;;7.38;2.60;;;29.50;64.40;;;;;;4917797;29;20040;-73
2022/06/23 09:58:53;;;;;;;6.18;2.65;;;28.20;74.90;;;;;;4915130;29;20088;-73
2022/06/23 10:01:43;;;;;;;3.55;2.78;;;27.40;88.90;;;;;;4918138;29;20461;-73
2022/06/23 10:04:23;;;;;;;7.10;3.75;;;27.20;90.30;;;;;;4910742;29;20391;-73
2022/06/23 10:07:31;;;;;;;4.05;2.88;;;27.00;88.10;;;;;;4919515;29;20043;-73
2022/06/23 10:10:11;;;;;;;4.07;3.60;;;27.10;91.10;;;;;;4910226;29;20444;-73
2022/06/23 10:12:39;;;;;;;6.20;3.63;;;26.90;92.30;;;;;;4917188;29;20393;-72
2022/06/23 10:15:27;;;;;;;5.20;3.30;;;26.80;90.50;;;;;;4916721;29;20040;-73
2022/06/23 10:18:08;;;;;;;5.50;3.25;;;26.60;90.70;;;;;;4573747;28;9999710;-71
2022/06/23 10:21:17;;;;;;;4.20;3.65;;;26.70;96.50;;;;;;4914770;29;20514;-73
2022/06/23 10:23:42;;;;;;;3.67;2.85;;;27.10;92.30;;;;;;4915138;29;20039;-73
2022/06/23 10:26:20;;;;;;;2.88;2.28;;;27.10;92.70;;;;;;4923748;29;20040;-73
2022/06/23 10:28:52;;;;;;;6.40;3.20;;;27.20;93.70;;;;;;4924155;29;20082;-72
2022/06/23 10:31:43;;;;;;;5.30;3.15;;;27.90;96.90;;;;;;4921841;29;20046;-73
2022/06/23 10:34:09;;;;;;;;;;;28.20;83.30;;;;;;4912892;29;20044;-73
2022/06/23 10:36:56;;;;;;;6.53;3.50;;;28.80;84.20;;;;;;4919388;29;19919;-72
2022/06/23 10:39:24;;;;;;;6.95;2.65;;;29.90;75.10;;;;;;4915353;29;20044;-73
2022/06/23 10:42:11;;;;;;;6.60;3.08;;;30.00;76.10;;;;;;4912325;29;20127;-72
2022/06/23 10:44:53;;;;;;;3.13;2.53;;;30.50;56.50;;;;;;4917854;29;20035;-73
2022/06/23 10:47:44;;;;;;;4.80;3.15;;;30.30;64.10;;;;;;4918674;29;20039;-73
2022/06/23 10:50:29;;;;;;;5.25;2.53;;;30.50;55.40;;;;;;4924717;29;20076;-72
2022/06/23 10:53:36;;;;;;;3.78;3.20;;;30.60;62.40;;;;;;4915505;29;20567;-72
2022/06/23 10:56:39;;;;;;;7.68;3.30;;;32.00;58.70;;;;;;4915290;29;20036;-73
2022/06/23 10:59:10;;;;;;;4.82;2.67;;;33.20;50.60;;;;;;4915126;29;20515;-72
2022/06/23 11:02:17;;;;;;;2.97;2.10;;;33.00;46.00;;;;;;4917451;29;20040;-73
2022/06/23 11:05:08;;;;;;;3.33;2.47;;;32.20;55.10;;;;;;4910183;29;20048;-73
2022/06/23 11:07:55;;;;;;;5.00;3.05;;;31.70;50.00;;;;;;4923508;29;20460;-74
2022/06/23 11:10:40;;;;;;;4.68;1.90;;;31.00;48.00;;;;;;4923676;29;20136;-73
2022/06/23 11:13:05;;;;;;;5.20;3.00;;;29.50;56.80;;;;;;4916584;29;20055;-73
2022/06/23 11:16:04;;;;;;;4.78;2.42;;;29.10;55.00;;;;;;4918604;29;20051;-72
2022/06/23 11:18:42;;;;;;;3.72;2.80;;;28.40;62.30;;;;;;4920038;29;20492;-72
2022/06/23 11:21:44;;;;;;;4.97;2.95;;;28.00;78.10;;;;;;4910418;29;20078;-72
2022/06/23 11:24:40;;;;;;;4.07;2.97;;;27.90;62.60;;;;;;4924525;29;20032;-72
2022/06/23 11:27:24;;;;;;;5.85;2.58;;;27.70;61.80;;;;;;4924050;29;20074;-72
2022/06/23 11:30:08;;;;;;;3.47;2.72;;;27.60;77.40;;;;;;4909286;29;20028;-72
2022/06/23 11:32:33;;;;;;;3.72;3.13;;;27.50;65.80;;;;;;4925895;29;20063;-72
2022/06/23 11:35:05;;;;;;;4.47;3.13;;;27.80;61.40;;;;;;4921091;29;20155;-72
2022/06/23 11:37:33;;;;;;;5.50;3.60;;;28.10;64.80;;;;;;4924270;29;20028;-73
2022/06/23 11:40:05;;;;;;;5.93;3.42;;;29.10;61.10;;;;;;4917591;29;20094;-72
2022/06/23 11:43:03;;;;;;;6.32;3.60;;;30.00;64.90;;;;;;4904929;29;20797;-71
2022/06/23 11:45:28;;;;;;;5.63;3.72;;;30.80;57.80;;;;;;4915970;29;20508;-71
2022/06/23 11:48:03;;;;;;;8.00;4.10;;;31.30;54.20;;;;;;4924452;29;20100;-71
2022/06/23 11:50:37;;;;;;;5.00;4.00;;;31.50;54.90;;;;;;4918083;29;20236;-72
2022/06/23 11:53:39;;;;;;;4.57;4.03;;;31.90;52.90;;;;;;4920768;29;20068;-72
2022/06/23 11:56:16;;;;;;;6.95;4.90;;;31.70;48.00;;;;;;4919808;29;20511;-72
2022/06/23 11:59:02;;;;;;;6.80;4.10;;;31.60;51.40;;;;;;4917496;29;20043;-71
2022/06/23 12:01:28;;;;;;;6.20;3.90;;;31.20;48.40;;;;;;4919925;29;20028;-72
2022/06/23 12:04:00;;;;;;;3.75;3.45;;;31.10;50.30;;;;;;4917765;29;20522;-72
2022/06/23 12:06:55;;;;;;;5.55;3.30;;;30.80;63.50;;;;;;4923200;29;20027;-72
2022/06/23 12:09:40;;;;;;;6.07;3.33;;;31.40;61.80;;;;;;4916052;29;20455;-73
2022/06/23 12:12:06;;;;;;;8.00;4.07;;;31.80;59.30;;;;;;4923259;29;20411;-73
2022/06/23 12:14:33;;;;;;;6.50;4.50;;;31.80;49.10;;;;;;4916517;29;20039;-73
2022/06/23 12:17:03;;;;;;;5.85;3.83;;;31.30;47.40;;;;;;4912578;29;20166;-72
2022/06/23 12:20:11;;;;;;;5.50;3.70;;;30.10;45.90;;;;;;4904039;29;20040;-73
2022/06/23 12:22:49;;;;;;;5.03;4.10;;;29.60;57.10;;;;;;4907622;29;20053;-72
2022/06/23 12:25:39;;;;;;;6.43;3.92;;;29.00;53.80;;;;;;4911089;29;20064;-72
2022/06/23 12:28:08;;;;;;;5.07;3.45;;;28.80;51.60;;;;;;4916744;29;20035;-72
2022/06/23 12:30:43;;;;;;;5.47;3.20;;;28.40;52.30;;;;;;4911694;29;20127;-72
2022/06/23 12:33:35;;;;;;;4.13;2.50;;;28.20;55.00;;;;;;4911016;29;20134;-72
2022/06/23 12:36:08;;;;;;;13.48;8.35;;;28.20;67.50;;;;;;4910966;29;20035;-72
2022/06/23 12:38:40;;;;;;;18.85;9.18;;;27.90;83.00;;;;;;4917477;29;20079;-72
2022/06/23 12:41:18;;;;;;;17.52;12.05;;;27.50;93.00;;;;;;4917847;29;20044;-72
2022/06/23 12:43:56;;;;;;;18.92;10.32;;;27.50;96.10;;;;;;4910828;29;20235;-72
2022/06/23 12:46:36;;;;;;;15.30;9.98;;;28.20;97.40;;;;;;4572314;28;10000115;-72
2022/06/23 12:49:07;;;;;;;18.45;11.80;;;28.20;90.80;;;;;;4913579;29;20036;-71
2022/06/23 12:51:36;;;;;;;16.13;10.75;;;27.50;91.70;;;;;;4910759;29;20491;-74
2022/06/23 12:54:30;;;;;;;17.00;11.27;;;26.90;97.40;;;;;;4909225;29;20036;-72
2022/06/23 12:57:21;;;;;;;18.40;10.65;;;26.60;99.90;;;;;;4909338;29;20041;-71
2022/06/23 12:59:57;;;;;;;20.25;10.15;;;26.90;99.90;;;;;;4903743;29;20126;-70
2022/06/23 13:02:36;;;;;;;21.50;9.82;;;28.20;99.90;;;;;;4909660;29;20090;-72
2022/06/23 13:05:19;;;;;;;18.98;9.35;;;28.60;96.40;;;;;;4908084;29;20028;-73
2022/06/23 13:07:45;;;;;;;12.93;8.27;;;28.60;98.80;;;;;;4914224;29;20043;-73
2022/06/23 13:10:37;;;;;;;18.15;9.15;;;28.80;99.30;;;;;;4906994;29;20040;-71
2022/06/23 13:13:23;;;;;;;15.50;10.73;;;28.90;93.10;;;;;;4918296;29;20534;-72
2022/06/23 13:15:59;;;;;;;15.35;9.00;;;28.20;94.70;;;;;;4913896;29;20067;-72
2022/06/23 13:18:33;;;;;;;18.63;10.35;;;28.00;97.20;;;;;;4909680;29;20052;-72
2022/06/23 13:21:20;;;;;;;17.70;11.60;;;27.30;95.10;;;;;;4911293;29;20407;-73
2022/06/23 13:23:57;;;;;;;19.27;11.63;;;27.10;98.60;;;;;;4911851;29;20032;-73
2022/06/23 13:26:50;;;;;;;16.58;11.07;;;27.00;99.90;;;;;;4911872;29;20143;-72
2022/06/23 13:29:35;;;;;;;17.58;9.25;;;27.10;99.00;;;;;;4916737;29;20127;-72
2022/06/23 13:32:17;;;;;;;17.98;8.80;;;27.30;99.90;;;;;;4914556;29;20111;-72
2022/06/23 13:35:06;;;;;;;13.95;9.20;;;27.70;99.90;;;;;;4916945;29;20036;-72
2022/06/23 13:37:59;;;;;;;17.50;10.02;;;27.60;97.40;;;;;;4904023;29;20120;-71
2022/06/23 13:41:05;;;;;;;17.30;9.00;;;27.50;97.70;;;;;;4911848;29;20084;-71
2022/06/23 13:43:36;;;;;;;12.35;8.15;;;27.60;99.70;;;;;;4853869;29;20548;-71
2022/06/23 13:46:14;;;;;;;;;;;27.70;97.90;;;;;;4911033;29;20052;-71
2022/06/23 13:48:43;;;;;;;19.45;10.63;;;27.80;96.20;;;;;;4911765;29;19915;-74
2022/06/23 13:51:20;;;;;;;13.75;8.23;;;28.00;94.00;;;;;;4911747;29;20050;-71
2022/06/23 13:54:15;;;;;;;15.55;8.43;;;27.90;98.40;;;;;;4916876;29;20071;-72